createdAt,value
2016-04-13T08:51:52.725Z,95
2016-04-13T08:52:52.555Z,90
2016-04-13T08:53:52.621Z,100
2016-04-13T08:54:52.515Z,145
2016-04-13T08:55:52.533Z,155
2016-04-13T08:56:52.505Z,150
2016-04-13T08:57:52.476Z,160
2016-04-13T08:58:52.494Z,180
2016-04-13T08:59:52.512Z,190
2016-04-13T09:00:52.468Z,180
2016-04-13T09:01:52.424Z,175
2016-04-13T09:02:52.411Z,175
2016-04-13T09:03:52.257Z,170
2016-04-13T09:04:52.384Z,160
2016-04-13T09:05:52.356Z,145
2016-04-13T09:06:52.390Z,120
2016-04-13T09:07:52.425Z,105
2016-04-13T09:08:52.333Z,85
2016-04-13T09:09:52.320Z,75
2016-04-13T09:10:52.308Z,75
2016-04-13T09:11:52.294Z,95
2016-04-13T09:12:52.266Z,95
2016-04-13T09:13:52.269Z,95
2016-04-13T09:14:52.240Z,90
2016-04-13T09:15:52.211Z,95
2016-04-13T09:16:52.214Z,95
2016-04-13T09:17:52.232Z,100
2016-04-13T09:18:52.219Z,100
2016-04-13T09:19:52.175Z,115
2016-04-13T09:20:52.163Z,135
2016-04-13T09:21:52.134Z,110
2016-04-13T09:22:52.121Z,105
2016-04-13T09:23:52.108Z,105
2016-04-13T09:24:52.095Z,105
2016-04-13T09:25:52.066Z,105
2016-04-13T09:26:52.101Z,95
2016-04-13T09:27:52.057Z,100
2016-04-13T09:28:52.044Z,105
2016-04-13T09:29:52.046Z,100
2016-04-13T09:30:52.127Z,105
2016-04-13T09:31:51.989Z,110
2016-04-13T09:32:51.976Z,115
2016-04-13T09:33:51.978Z,130
2016-04-13T09:34:51.950Z,150
2016-04-13T09:35:51.953Z,185
2016-04-13T09:36:51.939Z,215
2016-04-13T09:37:51.943Z,190
2016-04-13T09:38:52.008Z,175
2016-04-13T09:39:51.870Z,165
2016-04-13T09:40:51.872Z,185
2016-04-13T09:41:51.844Z,200
2016-04-13T09:42:51.847Z,215
2016-04-13T09:43:51.896Z,250
2016-04-13T09:44:51.883Z,320
2016-04-13T09:45:51.823Z,345
2016-04-13T09:46:51.779Z,310
2016-04-13T09:47:51.782Z,270
2016-04-13T09:48:51.753Z,245
2016-04-13T09:49:51.756Z,240
2016-04-13T09:50:51.728Z,230
2016-04-13T09:51:51.699Z,180
2016-04-13T09:52:51.702Z,185
2016-04-13T09:53:51.673Z,185
2016-04-13T09:54:51.760Z,195
2016-04-13T09:55:51.704Z,185
2016-04-13T09:56:51.348Z,195
2016-04-13T09:57:51.491Z,230
2016-04-13T09:58:52.010Z,215
2016-04-13T09:59:51.606Z,210
2016-04-13T10:00:51.614Z,230
2016-04-13T10:01:51.430Z,245
2016-04-13T10:02:51.574Z,290
2016-04-13T10:03:51.422Z,320
2016-04-13T10:04:51.398Z,285
2016-04-13T10:05:51.260Z,235
2016-04-13T10:06:51.356Z,185
2016-04-13T10:07:51.515Z,145
2016-04-13T10:08:51.486Z,115
2016-04-13T10:09:51.473Z,90
2016-04-13T10:10:51.476Z,85
2016-04-13T10:11:51.448Z,90
2016-04-13T10:13:06.263Z,105
2016-04-13T10:14:23.938Z,100
2016-04-13T10:15:15.487Z,125
2016-04-13T10:16:16.786Z,130
2016-04-13T10:16:51.384Z,115
2016-04-13T10:17:51.386Z,125
2016-04-13T10:18:51.373Z,155
2016-04-13T10:19:51.345Z,175
2016-04-13T10:20:51.316Z,295
2016-04-13T10:21:51.303Z,350
2016-04-13T10:22:51.228Z,260
2016-04-13T10:23:51.293Z,280
2016-04-13T10:24:51.280Z,510
2016-04-13T10:25:51.267Z,535
2016-04-13T10:26:51.254Z,415
2016-04-13T10:27:51.226Z,400
2016-04-13T10:28:51.213Z,375
2016-04-13T10:29:51.091Z,315
2016-04-13T10:30:51.256Z,315
2016-04-13T10:31:51.040Z,360
2016-04-13T10:32:50.856Z,150
2016-04-13T10:33:51.280Z,140
2016-04-13T10:34:51.142Z,170
2016-04-13T10:35:51.239Z,285
2016-04-13T10:36:51.194Z,330
2016-04-13T10:37:51.041Z,270
2016-04-13T10:38:51.089Z,355
2016-04-13T10:39:51.076Z,380
2016-04-13T10:40:51.062Z,445
2016-04-13T10:41:51.081Z,425
2016-04-13T10:42:51.021Z,335
2016-04-13T10:43:51.040Z,395
2016-04-13T10:44:50.995Z,450
2016-04-13T10:45:50.857Z,230
2016-04-13T10:46:51.000Z,345
2016-04-13T10:47:50.972Z,490
2016-04-13T10:48:50.959Z,385
2016-04-13T10:49:50.946Z,530
2016-04-13T10:50:50.933Z,445
2016-04-13T10:51:50.935Z,350
2016-04-13T10:52:51.188Z,2250
2016-04-13T10:53:50.879Z,2685
2016-04-13T10:54:50.913Z,830
2016-04-13T10:55:59.306Z,2540
2016-04-13T10:57:15.558Z,2515
2016-04-13T10:58:31.343Z,2540
2016-04-13T10:59:11.814Z,2670
2016-04-13T11:00:14.988Z,2780
2016-04-13T11:01:24.954Z,2790
2016-04-13T11:02:16.236Z,675
2016-04-13T11:03:05.455Z,565
2016-04-13T11:04:37.125Z,2600
2016-04-13T11:06:21.400Z,2450
2016-04-13T11:07:03.293Z,2465
2016-04-13T11:09:02.092Z,2680
2016-04-13T11:10:09.740Z,2700
2016-04-13T11:11:22.500Z,1820
2016-04-13T11:12:38.492Z,440
2016-04-13T11:13:37.906Z,510
2016-04-13T11:14:52.773Z,2320
2016-04-13T11:15:28.516Z,2565
2016-04-13T11:16:42.599Z,340
2016-04-13T11:17:57.761Z,530
2016-04-13T11:18:53.983Z,2565
2016-04-13T11:19:46.363Z,1205
2016-04-13T11:20:24.400Z,2420
2016-04-13T11:22:14.812Z,2430
2016-04-13T11:22:46.984Z,350
2016-04-13T11:23:29.878Z,335
2016-04-13T11:24:28.789Z,365
2016-04-13T11:25:28.760Z,1410
2016-04-13T11:26:28.779Z,235
2016-04-13T11:27:28.766Z,1995
2016-04-13T11:28:28.754Z,360
2016-04-13T11:29:28.742Z,2565
2016-04-13T11:30:28.729Z,2720
2016-04-13T11:31:28.763Z,2470
2016-04-13T11:32:28.718Z,2505
2016-04-13T11:33:28.737Z,2615
2016-04-13T11:34:28.724Z,445
2016-04-13T11:35:28.711Z,260
2016-04-13T11:36:28.714Z,2650
2016-04-13T11:37:28.716Z,1695
2016-04-13T11:38:28.704Z,535
2016-04-13T11:39:28.737Z,2695
2016-04-13T11:40:28.552Z,2005
2016-04-13T11:41:28.680Z,1010
2016-04-13T11:42:28.698Z,515
2016-04-13T11:43:28.685Z,265
2016-04-13T11:44:28.688Z,2035
2016-04-13T11:45:28.518Z,890
2016-04-13T11:46:28.679Z,520
2016-04-13T11:47:28.681Z,375
2016-04-13T11:48:28.668Z,410
2016-04-13T11:49:28.655Z,2555
2016-04-13T11:50:28.657Z,1390
2016-04-13T11:51:28.659Z,2500
2016-04-13T11:52:28.647Z,2260
2016-04-13T11:53:28.634Z,620
2016-04-13T11:54:28.622Z,2700
2016-04-13T11:55:28.640Z,2390
2016-04-13T11:56:28.627Z,2765
2016-04-13T11:57:28.630Z,2595
2016-04-13T11:58:28.616Z,355
2016-04-13T11:59:28.635Z,2645
2016-04-13T12:00:28.622Z,2730
2016-04-13T12:01:28.625Z,2515
2016-04-13T12:02:28.611Z,815
2016-04-13T12:03:28.599Z,2435
2016-04-13T12:04:28.602Z,2635
2016-04-13T12:05:28.620Z,2550
2016-04-13T12:06:28.591Z,2480
2016-04-13T12:07:28.578Z,2565
2016-04-13T12:08:28.644Z,780
2016-04-13T12:09:28.631Z,935
2016-04-13T12:10:28.587Z,2485
2016-04-13T12:11:28.575Z,2475
2016-04-13T12:12:28.608Z,2565
2016-04-13T12:13:28.595Z,490
2016-04-13T12:14:28.583Z,2545
2016-04-13T12:15:28.586Z,555
2016-04-13T12:16:28.572Z,2435
2016-04-13T12:17:28.575Z,2555
2016-04-13T12:18:28.577Z,465
2016-04-13T12:19:28.565Z,2530
2016-04-13T12:20:28.583Z,2615
2016-04-13T12:21:28.585Z,2425
2016-04-13T12:22:28.573Z,1950
2016-04-13T12:23:28.576Z,525
2016-04-13T12:24:28.578Z,2485
2016-04-13T12:25:28.581Z,2565
2016-04-13T12:26:28.584Z,375
2016-04-13T12:27:28.571Z,430
2016-04-13T12:28:28.573Z,2225
2016-04-13T12:29:28.685Z,2505
2016-04-13T12:30:28.626Z,550
2016-04-13T12:31:28.565Z,340
2016-04-13T12:32:28.569Z,2030
2016-04-13T12:33:28.571Z,350
2016-04-13T12:34:28.543Z,2710
2016-04-13T12:35:28.561Z,2810
2016-04-13T12:36:28.563Z,2620
2016-04-13T12:37:28.567Z,1750
2016-04-13T12:38:28.553Z,2565
2016-04-13T12:39:28.556Z,2670
2016-04-13T12:40:28.559Z,285
2016-04-13T12:41:28.562Z,365
2016-04-13T12:42:28.564Z,2565
2016-04-13T12:43:28.551Z,2400
2016-04-13T12:44:28.538Z,2525
2016-04-13T12:45:28.556Z,465
2016-04-13T12:46:28.575Z,415
2016-04-13T12:47:28.530Z,1250
2016-04-13T12:48:28.533Z,2470
2016-04-13T12:49:28.739Z,2560
2016-04-13T12:50:28.555Z,2560
2016-04-13T12:51:28.527Z,2515
2016-04-13T12:52:28.529Z,2595
2016-04-13T12:53:28.577Z,950
2016-04-13T12:54:28.534Z,2470
2016-04-13T12:55:28.537Z,1100
2016-04-13T12:56:28.524Z,2570
2016-04-13T12:57:28.527Z,2665
2016-04-13T12:58:28.560Z,2560
2016-04-13T12:59:28.516Z,2545
2016-04-13T13:00:28.518Z,2600
2016-04-13T13:01:28.521Z,835
2016-04-13T13:02:28.509Z,865
2016-04-13T13:03:28.527Z,2025
2016-04-13T13:04:28.530Z,2665
2016-04-13T13:05:28.532Z,2545
2016-04-13T13:06:28.503Z,385
2016-04-13T13:07:28.506Z,2620
2016-04-13T13:08:28.509Z,460
2016-04-13T13:09:28.496Z,395
2016-04-13T13:10:29.108Z,3030
2016-04-13T13:11:29.111Z,2475
2016-04-13T13:12:28.488Z,2120
2016-04-13T13:13:28.507Z,590
2016-04-13T13:14:28.494Z,490
2016-04-13T13:15:28.497Z,2520
2016-04-13T13:16:28.500Z,2310
2016-04-13T13:17:28.627Z,530
2016-04-13T13:18:28.489Z,1840
2016-04-13T13:19:28.492Z,680
2016-04-13T13:20:28.807Z,2600
2016-04-13T13:21:28.497Z,395
2016-04-13T13:22:28.469Z,380
2016-04-13T13:23:28.518Z,2610
2016-04-13T13:24:28.521Z,2625
2016-04-13T13:25:28.898Z,2715
2016-04-13T13:26:28.510Z,590
2016-04-13T13:27:28.498Z,515
2016-04-13T13:28:28.469Z,2540
2016-04-13T13:29:28.487Z,2480
2016-04-13T13:30:28.881Z,2655
2016-04-13T13:31:28.509Z,585
2016-04-13T13:32:28.496Z,2500
2016-04-13T13:33:30.029Z,2315
2016-04-13T13:34:28.485Z,2525
2016-04-13T13:35:28.488Z,2570
2016-04-13T13:36:28.491Z,1975
2016-04-13T13:37:28.478Z,400
2016-04-13T13:38:28.496Z,1585
2016-04-13T13:39:28.483Z,465
2016-04-13T13:40:28.470Z,2430
2016-04-13T13:41:28.457Z,2630
2016-04-13T13:42:28.506Z,1350
2016-04-13T13:43:28.478Z,590
2016-04-13T13:44:28.464Z,2535
2016-04-13T13:45:28.468Z,265
2016-04-13T13:46:28.439Z,620
2016-04-13T13:47:28.441Z,1790
2016-04-13T13:48:28.444Z,2290
2016-04-13T13:49:28.447Z,425
2016-04-13T13:50:28.466Z,585
2016-04-13T13:51:28.437Z,2320
2016-04-13T13:52:28.440Z,1230
2016-04-13T13:53:28.458Z,1775
2016-04-13T13:54:28.430Z,890
2016-04-13T13:55:28.448Z,525
2016-04-13T13:56:28.451Z,1000
2016-04-13T13:57:28.422Z,2505
2016-04-13T13:58:28.425Z,1410
2016-04-13T13:59:29.209Z,1005
2016-04-13T14:00:28.430Z,960
2016-04-13T14:01:28.418Z,455
2016-04-13T14:02:29.888Z,1770
2016-04-13T14:03:28.407Z,2050
2016-04-13T14:04:28.409Z,2295
2016-04-13T14:05:28.600Z,585
2016-04-13T14:06:28.399Z,2415
2016-04-13T14:07:28.402Z,2235
2016-04-13T14:08:28.420Z,770
2016-04-13T14:09:28.392Z,2275
2016-04-13T14:10:28.378Z,295
2016-04-13T14:11:28.381Z,2370
2016-04-13T14:12:28.401Z,2310
2016-04-13T14:13:28.403Z,2145
2016-04-13T14:14:28.374Z,2225
2016-04-13T14:15:28.377Z,2405
2016-04-13T14:16:28.394Z,555
2016-04-13T14:17:28.383Z,745
2016-04-13T14:18:28.416Z,420
2016-04-13T14:19:28.372Z,2245
2016-04-13T14:20:28.375Z,1335
2016-04-13T14:21:28.222Z,365
2016-04-13T14:22:28.364Z,350
2016-04-13T14:23:28.992Z,2295
2016-04-13T14:24:28.369Z,1390
2016-04-13T14:25:28.357Z,975
2016-04-13T14:26:28.391Z,1275
2016-04-13T14:27:28.347Z,620
2016-04-13T14:28:28.396Z,775
2016-04-13T14:29:29.790Z,505
2016-04-13T14:30:28.385Z,710
2016-04-13T14:31:28.341Z,1385
2016-04-13T14:32:28.391Z,945
2016-04-13T14:33:28.331Z,560
2016-04-13T14:34:28.318Z,980
2016-04-13T14:35:28.368Z,645
2016-04-13T14:36:28.323Z,1120
2016-04-13T14:37:28.295Z,1090
2016-04-13T14:38:28.423Z,710
2016-04-13T14:39:28.332Z,1370
2016-04-13T14:40:28.303Z,1835
2016-04-13T14:41:28.307Z,565
2016-04-13T14:42:28.278Z,405
2016-04-13T14:43:28.593Z,515
2016-04-13T14:44:28.267Z,305
2016-04-13T14:45:28.301Z,325
2016-04-13T14:46:28.272Z,1880
2016-04-13T14:47:28.166Z,1895
2016-04-13T14:48:28.262Z,2135
2016-04-13T14:49:28.250Z,220
2016-04-13T14:50:28.314Z,300
2016-04-13T14:51:28.255Z,1135
2016-04-13T14:52:28.226Z,415
2016-04-13T14:53:28.386Z,2165
2016-04-13T14:54:28.252Z,1960
2016-04-13T14:55:28.224Z,1950
2016-04-13T14:56:28.226Z,1900
2016-04-13T14:57:28.432Z,270
2016-04-13T14:58:28.076Z,2045
2016-04-13T14:59:28.188Z,1870
2016-04-13T15:00:28.206Z,405
2016-04-13T15:01:28.174Z,1120
2016-04-13T15:02:28.162Z,1365
2016-04-13T15:03:28.165Z,370
2016-04-13T15:04:28.151Z,2010
2016-04-13T15:05:28.155Z,1810
2016-04-13T15:06:28.141Z,355
2016-04-13T15:07:28.129Z,1735
2016-04-13T15:08:28.365Z,1800
2016-04-13T15:09:28.134Z,305
2016-04-13T15:10:28.121Z,345
2016-04-13T15:11:28.109Z,1770
2016-04-13T15:12:28.126Z,1600
2016-04-13T15:13:28.114Z,1580
2016-04-13T15:14:28.101Z,1080
2016-04-13T15:15:28.103Z,1485
2016-04-13T15:16:27.934Z,1105
2016-04-13T15:17:28.062Z,305
2016-04-13T15:18:28.068Z,360
2016-04-13T15:19:28.102Z,1360
2016-04-13T15:20:28.058Z,565
2016-04-13T15:21:28.060Z,495
2016-04-13T15:22:28.048Z,245
2016-04-13T15:23:28.160Z,1000
2016-04-13T15:24:28.054Z,930
2016-04-13T15:25:28.056Z,525
2016-04-13T15:26:28.027Z,980
2016-04-13T15:27:28.030Z,1015
2016-04-13T15:28:28.017Z,250
2016-04-13T15:29:28.020Z,470
2016-04-13T15:30:28.037Z,290
2016-04-13T15:31:28.009Z,1095
2016-04-13T15:32:28.043Z,680
2016-04-13T15:33:28.046Z,470
2016-04-13T15:34:28.002Z,335
2016-04-13T15:35:27.989Z,340
2016-04-13T15:36:28.147Z,380
2016-04-13T15:37:28.010Z,405
2016-04-13T15:38:28.997Z,445
2016-04-13T15:39:28.562Z,375
2016-04-13T15:40:27.971Z,380
2016-04-13T15:41:28.005Z,210
2016-04-13T15:42:27.804Z,245
2016-04-13T15:43:28.026Z,345
2016-04-13T15:44:27.935Z,340
2016-04-13T15:45:27.907Z,265
2016-04-13T15:46:27.909Z,275
2016-04-13T15:47:27.927Z,255
2016-04-13T15:48:27.899Z,250
2016-04-13T15:49:27.886Z,315
2016-04-13T15:50:27.888Z,315
2016-04-13T15:51:27.876Z,355
2016-04-13T15:52:27.879Z,380
2016-04-13T15:53:27.990Z,270
2016-04-13T15:54:27.852Z,205
2016-04-13T15:55:27.855Z,230
2016-04-13T15:56:27.812Z,265
2016-04-13T15:57:27.814Z,230
2016-04-13T15:58:27.817Z,270
2016-04-13T15:59:27.804Z,170
2016-04-13T16:00:27.791Z,195
2016-04-13T16:01:27.809Z,265
2016-04-13T16:02:27.765Z,190
2016-04-13T16:03:27.751Z,210
2016-04-13T16:04:27.770Z,240
2016-04-13T16:05:28.256Z,210
2016-04-13T16:06:28.213Z,240
2016-04-13T16:07:28.481Z,210
2016-04-13T16:08:28.312Z,280
2016-04-13T16:09:27.705Z,240
2016-04-13T16:10:27.677Z,190
2016-04-13T16:11:27.679Z,220
2016-04-13T16:12:27.650Z,245
2016-04-13T16:13:27.669Z,230
2016-04-13T16:14:27.656Z,245
2016-04-13T16:15:27.658Z,240
2016-04-13T16:16:27.630Z,190
2016-04-13T16:17:27.618Z,180
2016-04-13T16:18:27.620Z,150
2016-04-13T16:19:27.607Z,130
2016-04-13T16:20:27.610Z,245
2016-04-13T16:21:27.581Z,210
2016-04-13T16:22:27.584Z,180
2016-04-13T16:23:27.602Z,220
2016-04-13T16:24:27.542Z,180
2016-04-13T16:25:27.529Z,235
2016-04-13T16:26:27.532Z,275
2016-04-13T16:27:27.503Z,185
2016-04-13T16:28:27.490Z,195
2016-04-13T16:29:27.478Z,200
2016-04-13T16:30:27.465Z,220
2016-04-13T16:31:27.451Z,185
2016-04-13T16:32:27.439Z,220
2016-04-13T16:33:27.442Z,270
2016-04-13T16:34:27.428Z,175
2016-04-13T16:35:27.431Z,195
2016-04-13T16:36:27.419Z,205
2016-04-13T16:37:27.436Z,220
2016-04-13T16:38:27.408Z,215
2016-04-13T16:39:27.364Z,190
2016-04-13T16:40:27.367Z,165
2016-04-13T16:41:27.370Z,200
2016-04-13T16:42:27.356Z,155
2016-04-13T16:43:27.344Z,135
2016-04-13T16:44:27.346Z,155
2016-04-13T16:45:27.334Z,135
2016-04-13T16:46:27.289Z,155
2016-04-13T16:47:27.277Z,150
2016-04-13T16:48:27.279Z,110
2016-04-13T16:49:27.266Z,160
2016-04-13T16:50:27.252Z,170
2016-04-13T16:51:27.224Z,115
2016-04-13T16:52:27.258Z,130
2016-04-13T16:53:27.308Z,200
2016-04-13T16:54:27.201Z,225
2016-04-13T16:55:27.204Z,285
2016-04-13T16:56:27.176Z,230
2016-04-13T16:57:27.240Z,215
2016-04-13T16:58:27.134Z,190
2016-04-13T16:59:27.152Z,210
2016-04-13T17:00:27.140Z,225
2016-04-13T17:01:27.127Z,170
2016-04-13T17:02:27.129Z,175
2016-04-13T17:03:27.101Z,140
2016-04-13T17:04:27.151Z,200
2016-04-13T17:05:27.090Z,185
2016-04-13T17:06:27.062Z,115
2016-04-13T17:07:27.034Z,180
2016-04-13T17:08:27.020Z,195
2016-04-13T17:09:27.070Z,160
2016-04-13T17:10:27.229Z,95
2016-04-13T17:11:27.013Z,135
2016-04-13T17:12:27.000Z,130
2016-04-13T17:13:27.019Z,105
2016-04-13T17:14:26.989Z,110
2016-04-13T17:15:26.961Z,105
2016-04-13T17:16:26.979Z,120
2016-04-13T17:17:26.935Z,125
2016-04-13T17:18:26.922Z,140
2016-04-13T17:19:26.909Z,170
2016-04-13T17:20:26.896Z,170
2016-04-13T17:21:26.883Z,180
2016-04-13T17:22:26.870Z,185
2016-04-13T17:23:26.888Z,190
2016-04-13T17:24:26.844Z,185
2016-04-13T17:25:26.832Z,185
2016-04-13T17:26:26.819Z,195
2016-04-13T17:27:26.868Z,185
2016-04-13T17:28:26.824Z,190
2016-04-13T17:29:26.796Z,170
2016-04-13T17:30:26.814Z,155
2016-04-13T17:31:26.754Z,140
2016-04-13T17:32:26.772Z,145
2016-04-13T17:33:26.743Z,135
2016-04-13T17:34:26.746Z,130
2016-04-13T17:35:26.656Z,125
2016-04-13T17:36:26.720Z,125
2016-04-13T17:37:26.708Z,130
2016-04-13T17:38:26.694Z,140
2016-04-13T17:39:26.728Z,135
2016-04-13T17:40:26.653Z,135
2016-04-13T17:41:26.671Z,135
2016-04-13T17:42:26.674Z,130
2016-04-13T17:43:26.630Z,125
2016-04-13T17:44:26.616Z,120
2016-04-13T17:45:26.667Z,110
2016-04-13T17:46:26.482Z,110
2016-04-13T17:47:26.625Z,110
2016-04-13T17:48:26.597Z,105
2016-04-13T17:49:26.552Z,105
2016-04-13T17:50:26.539Z,105
2016-04-13T17:51:26.574Z,105
2016-04-13T17:52:26.513Z,105
2016-04-13T17:53:26.532Z,105
2016-04-13T17:54:26.488Z,100
2016-04-13T17:55:26.474Z,100
2016-04-13T17:56:26.477Z,95
2016-04-13T17:57:26.465Z,90
2016-04-13T17:58:26.452Z,85
2016-04-13T17:59:26.439Z,80
2016-04-13T18:00:26.441Z,75
2016-04-13T18:01:26.398Z,75
2016-04-13T18:02:26.384Z,80
2016-04-13T18:03:26.387Z,85
2016-04-13T18:04:26.374Z,85
2016-04-13T18:05:26.392Z,85
2016-04-13T18:06:26.379Z,85
2016-04-13T18:07:26.320Z,85
2016-04-13T18:08:26.353Z,85
2016-04-13T18:09:26.325Z,80
2016-04-13T18:10:26.280Z,80
2016-04-13T18:11:26.283Z,75
2016-04-13T18:12:26.286Z,75
2016-04-13T18:13:26.257Z,85
2016-04-13T18:14:26.275Z,80
2016-04-13T18:15:26.247Z,75
2016-04-13T18:16:26.219Z,80
2016-04-13T18:17:26.221Z,75
2016-04-13T18:18:26.239Z,65
2016-04-13T18:19:26.164Z,60
2016-04-13T18:20:26.152Z,50
2016-04-13T18:21:26.154Z,40
2016-04-13T18:22:26.125Z,40
2016-04-13T18:23:26.128Z,35
2016-04-13T18:24:26.115Z,35
2016-04-13T18:25:26.118Z,30
2016-04-13T18:26:26.074Z,30
2016-04-13T18:27:26.076Z,30
2016-04-13T18:28:26.079Z,25
2016-04-13T18:29:26.065Z,25
2016-04-13T18:30:26.053Z,25
2016-04-13T18:31:26.009Z,25
2016-04-13T18:32:26.012Z,25
2016-04-13T18:33:26.015Z,25
2016-04-13T18:34:26.001Z,25
2016-04-13T18:35:25.973Z,25
2016-04-13T18:36:25.959Z,25
2016-04-13T18:37:25.947Z,25
2016-04-13T18:38:25.950Z,25
2016-04-13T18:39:25.936Z,25
2016-04-13T18:40:25.924Z,25
2016-04-13T18:41:25.895Z,25
2016-04-13T18:42:25.976Z,20
2016-04-13T18:43:25.870Z,20
2016-04-13T18:44:25.889Z,25
2016-04-13T18:45:25.859Z,25
2016-04-13T18:46:25.847Z,25
2016-04-13T18:47:25.817Z,20
2016-04-13T18:48:25.805Z,20
2016-04-13T18:49:25.807Z,20
2016-04-13T18:50:25.763Z,20
2016-04-13T18:51:25.766Z,20
2016-04-13T18:52:25.737Z,15
2016-04-13T18:53:25.756Z,15
2016-04-13T18:54:25.727Z,15
2016-04-13T18:55:25.699Z,10
2016-04-13T18:56:25.701Z,10
2016-04-13T18:57:25.704Z,10
2016-04-13T18:58:25.676Z,10
2016-04-13T18:59:25.646Z,5
2016-04-13T19:00:25.649Z,5
2016-04-13T19:01:25.637Z,5
2016-04-13T19:02:25.623Z,5
2016-04-13T19:03:25.595Z,5
2016-04-13T19:04:24.816Z,5
2016-04-13T19:05:25.584Z,5
2016-04-13T19:06:25.572Z,5
2016-04-13T19:07:25.543Z,5
2016-04-13T19:08:25.546Z,0
2016-04-13T19:09:25.517Z,0
2016-04-13T19:10:25.504Z,0
2016-04-13T19:11:25.491Z,0
2016-04-13T19:12:25.478Z,0
2016-04-13T19:13:25.481Z,0
2016-04-13T19:14:25.594Z,0
2016-04-13T19:15:25.440Z,0
2016-04-13T19:16:25.428Z,0
2016-04-13T19:17:25.430Z,0
2016-04-13T19:18:25.386Z,0
2016-04-13T19:19:25.404Z,0
2016-04-13T19:20:25.375Z,0
2016-04-13T19:21:25.363Z,0
2016-04-13T19:22:25.349Z,0
2016-04-13T19:23:25.352Z,0
2016-04-13T19:24:25.338Z,0
2016-04-13T19:25:25.326Z,0
2016-04-13T19:26:25.282Z,0
2016-04-13T19:27:25.284Z,0
2016-04-13T19:28:25.256Z,0
2016-04-13T19:29:25.243Z,0
2016-04-13T19:30:25.246Z,0
2016-04-13T19:31:25.218Z,0
2016-04-13T19:32:25.220Z,0
2016-04-13T19:33:25.207Z,0
2016-04-13T19:34:25.178Z,0
2016-04-13T19:35:25.165Z,0
2016-04-13T19:36:25.012Z,0
2016-04-13T19:37:25.140Z,0
2016-04-13T19:38:25.142Z,0
2016-04-13T19:39:25.254Z,0
2016-04-13T19:40:25.117Z,0
2016-04-13T19:41:25.088Z,0
2016-04-13T19:42:25.091Z,0
2016-04-13T19:43:25.077Z,0
2016-04-13T19:44:25.065Z,0
2016-04-13T19:45:25.067Z,0
2016-04-13T19:46:32.398Z,0
2016-04-13T19:47:25.088Z,0
2016-04-13T19:48:26.278Z,0
2016-04-13T19:49:24.984Z,0
2016-04-13T19:50:24.971Z,0
2016-04-13T19:51:27.718Z,0
2016-04-13T19:52:24.970Z,0
2016-04-13T19:53:24.926Z,0
2016-04-13T19:54:24.555Z,0
2016-04-13T19:55:24.917Z,0
2016-04-13T19:56:25.983Z,0
2016-04-13T19:57:24.877Z,0
2016-04-13T19:58:24.723Z,0
2016-04-13T19:59:24.882Z,0
2016-04-13T20:00:24.853Z,0
2016-04-13T20:01:26.075Z,0
2016-04-13T20:02:24.796Z,0
2016-04-13T20:03:24.783Z,0
2016-04-13T20:04:24.770Z,0
2016-04-13T20:05:24.773Z,0
2016-04-13T20:06:26.197Z,0
2016-04-13T20:07:24.741Z,0
2016-04-13T20:08:24.819Z,0
2016-04-13T20:09:24.792Z,0
2016-04-13T20:10:24.847Z,0
2016-04-13T20:11:25.801Z,0
2016-04-13T20:12:24.889Z,0
2016-04-13T20:13:24.890Z,0
2016-04-13T20:14:24.893Z,0
2016-04-13T20:15:24.928Z,0
2016-04-13T20:16:26.446Z,0
2016-04-13T20:17:24.899Z,0
2016-04-13T20:18:24.892Z,0
2016-04-13T20:19:24.884Z,0
2016-04-13T20:20:24.878Z,0
2016-04-13T20:21:25.886Z,0
2016-04-13T20:22:24.877Z,0
2016-04-13T20:23:24.694Z,0
2016-04-13T20:24:24.948Z,0
2016-04-13T20:25:24.843Z,0
2016-04-13T20:26:25.567Z,0
2016-04-13T20:27:24.790Z,0
2016-04-13T20:28:24.778Z,0
2016-04-13T20:29:24.781Z,0
2016-04-13T20:30:24.754Z,0
2016-04-13T20:31:25.804Z,0
2016-04-13T20:32:24.744Z,0
2016-04-13T20:33:24.731Z,0
2016-04-13T20:34:24.734Z,0
2016-04-13T20:35:24.707Z,0
2016-04-13T20:36:24.570Z,0
2016-04-13T20:37:24.666Z,0
2016-04-13T20:38:24.716Z,0
2016-04-13T20:39:24.828Z,0
2016-04-13T20:40:24.643Z,0
2016-04-13T20:41:24.302Z,0
2016-04-13T20:42:24.601Z,0
2016-04-13T20:43:24.604Z,0
2016-04-13T20:44:24.592Z,0
2016-04-13T20:45:24.578Z,0
2016-04-13T20:46:24.550Z,0
2016-04-13T20:47:24.537Z,0
2016-04-13T20:48:24.508Z,0
2016-04-13T20:49:24.495Z,0
2016-04-13T20:50:24.483Z,0
2016-04-13T20:51:24.469Z,0
2016-04-13T20:52:24.488Z,0
2016-04-13T20:53:24.459Z,0
2016-04-13T20:54:24.430Z,0
2016-04-13T20:55:24.417Z,0
2016-04-13T20:56:24.420Z,0
2016-04-13T20:57:24.407Z,0
2016-04-13T20:58:24.395Z,0
2016-04-13T20:59:24.366Z,0
2016-04-13T21:00:24.556Z,0
2016-04-13T21:01:24.341Z,0
2016-04-13T21:02:24.327Z,0
2016-04-13T21:03:24.314Z,0
2016-04-13T21:04:24.302Z,0
2016-04-13T21:05:24.289Z,0
2016-04-13T21:06:24.307Z,0
2016-04-13T21:07:24.263Z,0
2016-04-13T21:08:24.110Z,0
2016-04-13T21:09:24.502Z,0
2016-04-13T21:10:24.208Z,0
2016-04-13T21:11:24.196Z,0
2016-04-13T21:12:24.182Z,0
2016-04-13T21:13:24.185Z,0
2016-04-13T21:14:24.157Z,0
2016-04-13T21:15:24.143Z,0
2016-04-13T21:16:24.146Z,0
2016-04-13T21:17:24.134Z,0
2016-04-13T21:18:23.323Z,0
2016-04-13T21:19:24.092Z,0
2016-04-13T21:20:24.079Z,0
2016-04-13T21:21:24.067Z,0
2016-04-13T21:22:24.037Z,0
2016-04-13T21:23:24.040Z,0
2016-04-13T21:24:24.433Z,0
2016-04-13T21:25:24.030Z,0
2016-04-13T21:26:24.001Z,0
2016-04-13T21:27:23.816Z,0
2016-04-13T21:28:23.991Z,0
2016-04-13T21:29:23.963Z,0
2016-04-13T21:30:23.933Z,0
2016-04-13T21:31:23.921Z,0
2016-04-13T21:32:23.907Z,0
2016-04-13T21:33:23.895Z,0
2016-04-13T21:34:23.866Z,0
2016-04-13T21:35:23.885Z,0
2016-04-13T21:36:23.856Z,0
2016-04-13T21:37:23.844Z,0
2016-04-13T21:38:23.830Z,0
2016-04-13T21:39:23.849Z,0
2016-04-13T21:40:23.788Z,0
2016-04-13T21:41:23.791Z,0
2016-04-13T21:42:23.794Z,0
2016-04-13T21:43:23.750Z,0
2016-04-13T21:44:23.753Z,0
2016-04-13T21:45:23.756Z,0
2016-04-13T21:46:23.727Z,0
2016-04-13T21:47:23.714Z,0
2016-04-13T21:48:23.685Z,0
2016-04-13T21:49:23.673Z,0
2016-04-13T21:50:23.675Z,0
2016-04-13T21:51:23.647Z,0
2016-04-13T21:52:23.618Z,0
2016-04-13T21:53:23.620Z,0
2016-04-13T21:54:23.608Z,0
2016-04-13T21:55:23.595Z,0
2016-04-13T21:56:23.598Z,0
2016-04-13T21:57:23.553Z,0
2016-04-13T21:58:23.541Z,0
2016-04-13T21:59:23.544Z,0
2016-04-13T22:00:23.514Z,0
2016-04-13T22:01:23.502Z,0
2016-04-13T22:02:23.504Z,0
2016-04-13T22:03:23.475Z,0
2016-04-13T22:04:23.463Z,0
2016-04-13T22:05:23.450Z,0
2016-04-13T22:06:23.438Z,0
2016-04-13T22:07:23.440Z,0
2016-04-13T22:08:23.442Z,0
2016-04-13T22:09:23.398Z,0
2016-04-13T22:10:23.385Z,0
2016-04-13T22:11:23.372Z,0
2016-04-13T22:12:23.344Z,0
2016-04-13T22:13:23.346Z,0
2016-04-13T22:14:23.333Z,0
2016-04-13T22:15:23.320Z,0
2016-04-13T22:16:23.308Z,0
2016-04-13T22:17:23.295Z,0
2016-04-13T22:18:23.282Z,0
2016-04-13T22:19:23.253Z,0
2016-04-13T22:20:23.256Z,0
2016-04-13T22:21:23.259Z,0
2016-04-13T22:22:23.231Z,0
2016-04-13T22:23:23.233Z,0
2016-04-13T22:24:23.189Z,0
2016-04-13T22:25:23.175Z,0
2016-04-13T22:26:23.162Z,0
2016-04-13T22:27:23.134Z,0
2016-04-13T22:28:23.122Z,0
2016-04-13T22:29:23.108Z,0
2016-04-13T22:30:23.110Z,0
2016-04-13T22:31:23.083Z,0
2016-04-13T22:32:23.070Z,0
2016-04-13T22:33:23.072Z,0
2016-04-13T22:34:23.059Z,0
2016-04-13T22:35:23.031Z,0
2016-04-13T22:36:23.018Z,0
2016-04-13T22:37:23.021Z,0
2016-04-13T22:38:22.991Z,0
2016-04-13T22:39:22.979Z,0
2016-04-13T22:40:22.981Z,0
2016-04-13T22:41:22.938Z,0
2016-04-13T22:42:22.925Z,0
2016-04-13T22:43:22.926Z,0
2016-04-13T22:44:22.898Z,0
2016-04-13T22:45:22.870Z,0
2016-04-13T22:46:22.873Z,0
2016-04-13T22:47:22.876Z,0
2016-04-13T22:48:22.863Z,0
2016-04-13T22:49:22.848Z,0
2016-04-13T22:50:22.820Z,0
2016-04-13T22:51:22.809Z,0
2016-04-13T22:52:22.795Z,0
2016-04-13T22:53:22.798Z,0